CheckWX is a tool to help pilots better visualize weather data.  It is not intended as a substitute for an official pre-flight weather briefing.

07:00:45 UTC

OKBK TAF
Kuwait International Airport
Kuwait City, Kuwait
TAF OKBK 190445Z 1906/2012 34015G30KT 6000 SKC TEMPO 1906/1915 2000 BLDU

Jun-19@
06:00 UTC

Jun-19 @ 06:00 UTC

Jun-20@
12:00 UTC

Jun-20 @ 12:00 UTC

TAF OKBK 190445Z 1906/2012 34015G30KT 6000 SKC
Wind
  • 340° at 15 KTS
  • {Gusting to 30 KTS
Cloud Levels
  • Clear skies

Jun-19@
06:00 UTC

Jun-19 @ 06:00 UTC

Jun-19@
15:00 UTC

Jun-19 @ 15:00 UTC

TEMPO 1906/1915 2000 BLDU

Temporary

Temporary Changes expected for less than half the time period

Conditions
Blowing Dust